Time,TemperatureF,DewpointF,PressureIn,WindDirection,WindDirectionDegrees,WindSpeedMPH,WindSpeedGustMPH,Humidity,HourlyPrecipIn,Conditions,Clouds,dailyrainin,SoftwareType,DateUTC
2013-03-05 00:00:00,51.0,42.0,30.13,SW,220,9.0,10.0,71,-99.99,,,-99.99,,2013-03-05 05:00:00,
2013-03-05 00:22:00,51.0,42.0,30.13,SW,220,9.0,10.0,71,-99.99,,,-99.99,,2013-03-05 05:22:00,
2013-03-05 00:31:00,51.0,42.0,30.13,SW,220,9.0,10.0,71,-99.99,,,-99.99,,2013-03-05 05:31:00,
2013-03-05 00:41:00,51.0,42.0,30.13,SW,220,9.0,10.0,71,-99.99,,,-99.99,,2013-03-05 05:41:00,
2013-03-05 00:51:00,51.0,42.0,30.13,SW,220,9.0,10.0,71,-99.99,,,-99.99,,2013-03-05 05:51:00,
2013-03-05 01:00:00,52.0,44.0,30.12,SSW,200,9.0,11.0,72,-99.99,,,-99.99,,2013-03-05 06:00:00,
2013-03-05 01:21:00,52.0,44.0,30.12,SSW,200,9.0,11.0,72,-99.99,,,-99.99,,2013-03-05 06:21:00,
2013-03-05 01:31:00,52.0,44.0,30.12,SSW,200,9.0,11.0,72,-99.99,,,-99.99,,2013-03-05 06:31:00,
2013-03-05 01:41:00,52.0,44.0,30.12,SSW,200,9.0,11.0,72,-99.99,,,-99.99,,2013-03-05 06:41:00,
2013-03-05 01:52:00,52.0,44.0,30.12,SSW,200,9.0,11.0,72,-99.99,,,-99.99,,2013-03-05 06:52:00,
2013-03-05 02:00:00,51.0,44.0,30.14,WSW,240,6.0,7.0,76,-99.99,,,-99.99,,2013-03-05 07:00:00,
2013-03-05 02:21:00,51.0,44.0,30.14,WSW,240,6.0,7.0,76,-99.99,,,-99.99,,2013-03-05 07:21:00,
2013-03-05 02:31:00,51.0,44.0,30.14,WSW,240,6.0,7.0,76,-99.99,,,-99.99,,2013-03-05 07:31:00,
2013-03-05 02:41:00,51.0,44.0,30.14,WSW,240,6.0,7.0,76,-99.99,,,-99.99,,2013-03-05 07:41:00,
2013-03-05 02:51:00,51.0,44.0,30.14,WSW,240,6.0,7.0,76,-99.99,,,-99.99,,2013-03-05 07:51:00,
2013-03-05 03:00:00,51.0,45.0,30.14,SW,220,6.0,7.0,81,-99.99,,,-99.99,,2013-03-05 08:00:00,
2013-03-05 03:21:00,51.0,45.0,30.14,SW,220,6.0,7.0,81,-99.99,,,-99.99,,2013-03-05 08:21:00,
2013-03-05 03:31:00,51.0,45.0,30.14,SW,220,6.0,7.0,81,-99.99,,,-99.99,,2013-03-05 08:31:00,
2013-03-05 03:41:00,51.0,45.0,30.14,SW,220,6.0,7.0,81,-99.99,,,-99.99,,2013-03-05 08:41:00,
2013-03-05 03:51:00,51.0,45.0,30.14,SW,220,6.0,7.0,81,-99.99,,,-99.99,,2013-03-05 08:51:00,
2013-03-05 04:00:00,51.0,48.0,30.13,SW,230,6.0,7.0,89,-99.99,,,-99.99,,2013-03-05 09:00:00,
2013-03-05 04:31:00,51.0,48.0,30.13,SW,230,6.0,7.0,89,-99.99,,,-99.99,,2013-03-05 09:31:00,
2013-03-05 04:42:00,51.0,48.0,30.13,SW,230,6.0,7.0,89,-99.99,,,-99.99,,2013-03-05 09:42:00,
2013-03-05 04:51:00,51.0,48.0,30.13,SW,230,6.0,7.0,89,-99.99,,,-99.99,,2013-03-05 09:51:00,
2013-03-05 05:00:00,51.0,49.0,30.14,SW,220,5.0,5.0,91,-99.99,,,-99.99,,2013-03-05 10:00:00,
2013-03-05 05:21:00,51.0,49.0,30.14,SW,220,5.0,5.0,91,-99.99,,,-99.99,,2013-03-05 10:21:00,
2013-03-05 05:31:00,51.0,49.0,30.14,SW,220,5.0,5.0,91,-99.99,,,-99.99,,2013-03-05 10:31:00,
2013-03-05 05:41:00,51.0,49.0,30.14,SW,220,5.0,5.0,91,-99.99,,,-99.99,,2013-03-05 10:41:00,
2013-03-05 05:51:00,51.0,49.0,30.14,SW,220,5.0,5.0,91,-99.99,,,-99.99,,2013-03-05 10:51:00,
2013-03-05 06:00:00,51.0,49.0,30.15,SW,230,6.0,7.0,95,-99.99,,,-99.99,,2013-03-05 11:00:00,
2013-03-05 06:21:00,51.0,49.0,30.15,SW,230,6.0,7.0,95,-99.99,,,-99.99,,2013-03-05 11:21:00,
2013-03-05 06:32:00,51.0,49.0,30.15,SW,230,6.0,7.0,95,-99.99,,,-99.99,,2013-03-05 11:32:00,
2013-03-05 06:41:00,51.0,49.0,30.15,SW,230,6.0,7.0,95,-99.99,,,-99.99,,2013-03-05 11:41:00,
2013-03-05 06:52:00,51.0,49.0,30.15,SW,230,6.0,7.0,95,-99.99,,,-99.99,,2013-03-05 11:52:00,
2013-03-05 07:00:00,52.0,51.0,30.15,SW,220,6.0,7.0,95,-99.99,,,-99.99,,2013-03-05 12:00:00,
2013-03-05 07:22:00,52.0,51.0,30.15,SW,220,6.0,7.0,95,-99.99,,,-99.99,,2013-03-05 12:22:00,
2013-03-05 07:32:00,52.0,51.0,30.15,SW,220,6.0,7.0,95,-99.99,,,-99.99,,2013-03-05 12:32:00,
2013-03-05 07:41:00,52.0,51.0,30.15,SW,220,6.0,7.0,95,-99.99,,,-99.99,,2013-03-05 12:41:00,
2013-03-05 07:52:00,52.0,51.0,30.15,SW,220,6.0,7.0,95,-99.99,,,-99.99,,2013-03-05 12:52:00,
2013-03-05 08:00:00,53.0,50.0,30.15,SW,220,10.0,11.0,89,-99.99,,,-99.99,,2013-03-05 13:00:00,
2013-03-05 08:21:00,53.0,50.0,30.15,SW,220,10.0,11.0,89,-99.99,,,-99.99,,2013-03-05 13:21:00,
2013-03-05 08:31:00,53.0,50.0,30.15,SW,220,10.0,11.0,89,-99.99,,,-99.99,,2013-03-05 13:31:00,
2013-03-05 08:41:00,53.0,50.0,30.15,SW,220,10.0,11.0,89,-99.99,,,-99.99,,2013-03-05 13:41:00,
2013-03-05 08:51:00,53.0,50.0,30.15,SW,220,10.0,11.0,89,-99.99,,,-99.99,,2013-03-05 13:51:00,
2013-03-05 09:00:00,53.0,49.0,30.14,South,190,9.0,10.0,84,-99.99,,,-99.99,,2013-03-05 14:00:00,
2013-03-05 09:21:00,53.0,49.0,30.14,South,190,9.0,10.0,84,-99.99,,,-99.99,,2013-03-05 14:21:00,
2013-03-05 09:31:00,53.0,49.0,30.14,South,190,9.0,10.0,84,-99.99,,,-99.99,,2013-03-05 14:31:00,
2013-03-05 09:41:00,53.0,49.0,30.14,South,190,9.0,10.0,84,-99.99,,,-99.99,,2013-03-05 14:41:00,
2013-03-05 09:52:00,53.0,49.0,30.14,South,190,9.0,10.0,84,-99.99,,,-99.99,,2013-03-05 14:52:00,
2013-03-05 10:00:00,55.0,47.0,30.11,South,190,10.0,13.0,75,-99.99,,,-99.99,,2013-03-05 15:00:00,
2013-03-05 10:21:00,55.0,47.0,30.11,South,190,10.0,13.0,75,-99.99,,,-99.99,,2013-03-05 15:21:00,
2013-03-05 10:31:00,55.0,47.0,30.11,South,190,10.0,13.0,75,-99.99,,,-99.99,,2013-03-05 15:31:00,
2013-03-05 10:42:00,55.0,47.0,30.11,South,190,10.0,13.0,75,-99.99,,,-99.99,,2013-03-05 15:42:00,
2013-03-05 10:51:00,55.0,47.0,30.11,South,190,10.0,13.0,75,-99.99,,,-99.99,,2013-03-05 15:51:00,
2013-03-05 11:00:00,55.0,49.0,30.10,SSW,210,11.0,13.0,78,-99.99,,,-99.99,,2013-03-05 16:00:00,
2013-03-05 11:31:00,55.0,49.0,30.10,SSW,210,11.0,13.0,78,-99.99,,,-99.99,,2013-03-05 16:31:00,
2013-03-05 11:41:00,55.0,49.0,30.10,SSW,210,11.0,13.0,78,-99.99,,,-99.99,,2013-03-05 16:41:00,
2013-03-05 11:51:00,55.0,49.0,30.10,SSW,210,11.0,13.0,78,-99.99,,,-99.99,,2013-03-05 16:51:00,
2013-03-05 12:00:00,57.0,47.0,30.09,SW,220,14.0,15.0,70,-99.99,,,-99.99,,2013-03-05 17:00:00,
2013-03-05 12:21:00,57.0,47.0,30.09,SW,220,14.0,15.0,70,-99.99,,,-99.99,,2013-03-05 17:21:00,
2013-03-05 12:31:00,57.0,47.0,30.09,SW,220,14.0,15.0,70,-99.99,,,-99.99,,2013-03-05 17:31:00,
2013-03-05 12:41:00,57.0,47.0,30.09,SW,220,14.0,15.0,70,-99.99,,,-99.99,,2013-03-05 17:41:00,
2013-03-05 12:52:00,57.0,47.0,30.09,SW,220,14.0,15.0,70,-99.99,,,-99.99,,2013-03-05 17:52:00,
2013-03-05 13:00:00,56.0,47.0,30.05,SW,220,14.0,15.0,71,-99.99,,,-99.99,,2013-03-05 18:00:00,
2013-03-05 13:21:00,56.0,47.0,30.05,SW,220,14.0,15.0,71,-99.99,,,-99.99,,2013-03-05 18:21:00,
2013-03-05 13:31:00,56.0,47.0,30.05,SW,220,14.0,15.0,71,-99.99,,,-99.99,,2013-03-05 18:31:00,
2013-03-05 13:41:00,56.0,47.0,30.05,SW,220,14.0,15.0,71,-99.99,,,-99.99,,2013-03-05 18:41:00,
2013-03-05 13:52:00,56.0,47.0,30.05,SW,220,14.0,15.0,71,-99.99,,,-99.99,,2013-03-05 18:52:00,
2013-03-05 14:00:00,56.0,48.0,30.01,SW,220,11.0,14.0,73,-99.99,,,-99.99,,2013-03-05 19:00:00,
2013-03-05 14:21:00,56.0,48.0,30.01,SW,220,11.0,14.0,73,-99.99,,,-99.99,,2013-03-05 19:21:00,
2013-03-05 14:31:00,56.0,48.0,30.01,SW,220,11.0,14.0,73,-99.99,,,-99.99,,2013-03-05 19:31:00,
2013-03-05 14:41:00,56.0,48.0,30.01,SW,220,11.0,14.0,73,-99.99,,,-99.99,,2013-03-05 19:41:00,
2013-03-05 14:51:00,56.0,48.0,30.01,SW,220,11.0,14.0,73,-99.99,,,-99.99,,2013-03-05 19:51:00,
2013-03-05 15:00:00,55.0,49.0,29.98,SSW,210,11.0,11.0,79,-99.99,,,-99.99,,2013-03-05 20:00:00,
2013-03-05 15:21:00,55.0,49.0,29.98,SSW,210,11.0,11.0,79,-99.99,,,-99.99,,2013-03-05 20:21:00,
2013-03-05 15:31:00,55.0,49.0,29.98,SSW,210,11.0,11.0,79,-99.99,,,-99.99,,2013-03-05 20:31:00,
2013-03-05 15:41:00,55.0,49.0,29.98,SSW,210,11.0,11.0,79,-99.99,,,-99.99,,2013-03-05 20:41:00,
2013-03-05 15:52:00,55.0,49.0,29.98,SSW,210,11.0,11.0,79,-99.99,,,-99.99,,2013-03-05 20:52:00,
2013-03-05 16:00:00,55.0,51.0,29.96,SSW,210,13.0,14.0,84,-99.99,,,-99.99,,2013-03-05 21:00:00,
2013-03-05 16:21:00,55.0,51.0,29.96,SSW,210,13.0,14.0,84,-99.99,,,-99.99,,2013-03-05 21:21:00,
2013-03-05 16:31:00,55.0,51.0,29.96,SSW,210,13.0,14.0,84,-99.99,,,-99.99,,2013-03-05 21:31:00,
2013-03-05 16:41:00,55.0,51.0,29.96,SSW,210,13.0,14.0,84,-99.99,,,-99.99,,2013-03-05 21:41:00,
2013-03-05 16:52:00,55.0,51.0,29.96,SSW,210,13.0,14.0,84,-99.99,,,-99.99,,2013-03-05 21:52:00,
2013-03-05 17:00:00,56.0,51.0,29.92,SW,220,10.0,13.0,82,-99.99,,,-99.99,,2013-03-05 22:00:00,
2013-03-05 17:21:00,56.0,51.0,29.92,SW,220,10.0,13.0,82,-99.99,,,-99.99,,2013-03-05 22:21:00,
2013-03-05 17:31:00,56.0,51.0,29.92,SW,220,10.0,13.0,82,-99.99,,,-99.99,,2013-03-05 22:31:00,
2013-03-05 17:41:00,56.0,51.0,29.92,SW,220,10.0,13.0,82,-99.99,,,-99.99,,2013-03-05 22:41:00,
2013-03-05 17:52:00,56.0,51.0,29.92,SW,220,10.0,13.0,82,-99.99,,,-99.99,,2013-03-05 22:52:00,
2013-03-05 18:00:00,57.0,52.0,29.89,SSW,200,15.0,18.0,84,-99.99,,,-99.99,,2013-03-05 23:00:00,
2013-03-05 18:21:00,57.0,52.0,29.89,SSW,200,15.0,18.0,84,-99.99,,,-99.99,,2013-03-05 23:21:00,
2013-03-05 18:32:00,57.0,52.0,29.89,SSW,200,15.0,18.0,84,-99.99,,,-99.99,,2013-03-05 23:32:00,
2013-03-05 18:41:00,57.0,52.0,29.89,SSW,200,15.0,18.0,84,-99.99,,,-99.99,,2013-03-05 23:41:00,
2013-03-05 18:52:00,57.0,52.0,29.89,SSW,200,15.0,18.0,84,-99.99,,,-99.99,,2013-03-05 23:52:00,
2013-03-05 19:00:00,57.0,53.0,29.86,South,190,16.0,18.0,84,-99.99,,,-99.99,,2013-03-06 00:00:00,
2013-03-05 19:21:00,57.0,53.0,29.86,South,190,16.0,18.0,84,-99.99,,,-99.99,,2013-03-06 00:21:00,
2013-03-05 19:31:00,57.0,53.0,29.86,South,190,16.0,18.0,84,-99.99,,,-99.99,,2013-03-06 00:31:00,
2013-03-05 19:41:00,57.0,53.0,29.86,South,190,16.0,18.0,84,-99.99,,,-99.99,,2013-03-06 00:41:00,
2013-03-05 19:51:00,57.0,53.0,29.86,South,190,16.0,18.0,84,-99.99,,,-99.99,,2013-03-06 00:51:00,
2013-03-05 21:00:00,60.0,53.0,29.78,South,190,26.0,30.0,78,-99.99,,,-99.99,,2013-03-06 02:00:00,
2013-03-05 21:41:00,60.0,53.0,29.78,South,190,26.0,30.0,78,-99.99,,,-99.99,,2013-03-06 02:41:00,
2013-03-05 21:51:00,60.0,53.0,29.78,South,190,26.0,30.0,78,-99.99,,,-99.99,,2013-03-06 02:51:00,
2013-03-05 22:00:00,59.0,54.0,29.77,SSW,200,25.0,31.0,82,-99.99,,,-99.99,,2013-03-06 03:00:00,
2013-03-05 22:21:00,59.0,54.0,29.77,SSW,200,25.0,31.0,82,-99.99,,,-99.99,,2013-03-06 03:21:00,
2013-03-05 22:31:00,59.0,54.0,29.77,SSW,200,25.0,31.0,82,-99.99,,,-99.99,,2013-03-06 03:31:00,
2013-03-05 22:41:00,59.0,54.0,29.77,SSW,200,25.0,31.0,82,-99.99,,,-99.99,,2013-03-06 03:41:00,
2013-03-05 22:52:00,59.0,54.0,29.77,SSW,200,25.0,31.0,82,-99.99,,,-99.99,,2013-03-06 03:52:00,
2013-03-05 23:00:00,59.0,56.0,29.79,West,260,18.0,24.0,89,-99.99,,,-99.99,,2013-03-06 04:00:00,
2013-03-05 23:21:00,59.0,56.0,29.79,West,260,18.0,24.0,89,-99.99,,,-99.99,,2013-03-06 04:21:00,
2013-03-05 23:31:00,59.0,56.0,29.79,West,260,18.0,24.0,89,-99.99,,,-99.99,,2013-03-06 04:31:00,
2013-03-05 23:41:00,59.0,56.0,29.79,West,260,18.0,24.0,89,-99.99,,,-99.99,,2013-03-06 04:41:00,
2013-03-05 23:51:00,59.0,56.0,29.79,West,260,18.0,24.0,89,-99.99,,,-99.99,,2013-03-06 04:51:00,